createdAt,value
2017-09-24T00:01:17.348Z,27.67
2017-09-24T00:03:45.994Z,27.90
2017-09-24T00:06:13.961Z,24.80
2017-09-24T00:08:42.881Z,22.40
2017-09-24T00:11:10.625Z,28.60
2017-09-24T00:13:38.476Z,24.50
2017-09-24T00:16:06.382Z,27.17
2017-09-24T00:18:34.256Z,31.00
2017-09-24T00:21:02.899Z,36.97
2017-09-24T00:23:30.900Z,32.67
2017-09-24T00:25:58.809Z,29.73
2017-09-24T00:28:26.887Z,35.03
2017-09-24T00:30:54.731Z,31.20
2017-09-24T00:33:23.326Z,27.53
2017-09-24T00:35:51.309Z,28.77
2017-09-24T00:38:19.264Z,34.30
2017-09-24T00:40:47.182Z,25.73
2017-09-24T00:43:15.142Z,31.17
2017-09-24T00:45:42.918Z,25.17
2017-09-24T00:48:10.783Z,25.23
2017-09-24T00:50:39.674Z,25.70
2017-09-24T00:53:08.749Z,32.70
2017-09-24T00:55:36.837Z,25.03
2017-09-24T00:58:04.903Z,29.13
2017-09-24T01:00:32.869Z,25.47
2017-09-24T01:03:00.841Z,29.47
2017-09-24T01:05:29.316Z,29.27
2017-09-24T01:07:57.507Z,30.80
2017-09-24T01:10:26.364Z,28.80
2017-09-24T01:12:54.360Z,34.93
2017-09-24T01:15:22.271Z,25.77
2017-09-24T01:17:50.800Z,28.50
2017-09-24T01:20:18.680Z,30.03
2017-09-24T01:22:46.603Z,37.90
2017-09-24T01:25:14.923Z,31.47
2017-09-24T01:27:42.791Z,46.90
2017-09-24T01:30:11.565Z,26.30
2017-09-24T01:32:39.415Z,29.07
2017-09-24T01:35:07.304Z,27.00
2017-09-24T01:37:35.494Z,29.10
2017-09-24T01:40:05.469Z,29.83
2017-09-24T01:42:33.449Z,35.23
2017-09-24T01:45:04.142Z,29.40
2017-09-24T01:47:32.761Z,44.07
2017-09-24T01:50:00.814Z,35.13
2017-09-24T01:52:28.718Z,33.63
2017-09-24T01:54:57.513Z,45.67
2017-09-24T01:57:25.804Z,42.17
2017-09-24T01:59:53.772Z,35.43
2017-09-24T02:02:21.622Z,43.87
2017-09-24T02:04:49.390Z,41.07
2017-09-24T02:07:17.287Z,35.97
2017-09-24T02:09:46.863Z,41.83
2017-09-24T02:12:14.608Z,35.30
2017-09-24T02:14:42.391Z,45.73
2017-09-24T02:17:10.459Z,52.53
2017-09-24T02:19:38.328Z,42.50
2017-09-24T02:22:06.115Z,42.23
2017-09-24T02:24:34.673Z,42.37
2017-09-24T02:27:02.700Z,41.50
2017-09-24T02:29:31.253Z,42.57
2017-09-24T02:31:59.811Z,41.60
2017-09-24T02:34:27.562Z,41.30
2017-09-24T02:36:55.297Z,37.23
2017-09-24T02:39:23.122Z,34.77
2017-09-24T02:41:50.926Z,36.80
2017-09-24T02:44:18.836Z,37.33
2017-09-24T02:46:46.699Z,42.70
2017-09-24T02:49:15.512Z,39.23
2017-09-24T02:51:44.092Z,40.30
2017-09-24T02:54:12.743Z,47.77
2017-09-24T02:56:40.605Z,38.10
2017-09-24T02:59:08.595Z,38.13
2017-09-24T03:01:37.859Z,52.03
2017-09-24T03:04:05.777Z,41.20
2017-09-24T03:06:33.832Z,36.60
2017-09-24T03:09:01.596Z,47.07
2017-09-24T03:11:29.443Z,42.13
2017-09-24T03:13:57.241Z,49.60
2017-09-24T03:16:24.996Z,46.43
2017-09-24T03:18:54.492Z,42.80
2017-09-24T03:21:22.258Z,48.07
2017-09-24T03:23:50.079Z,41.73
2017-09-24T03:26:17.849Z,50.77
2017-09-24T03:28:45.652Z,49.80
2017-09-24T03:31:13.527Z,61.07
2017-09-24T03:33:41.567Z,43.87
2017-09-24T03:36:09.436Z,40.37
2017-09-24T03:38:37.320Z,49.70
2017-09-24T03:41:05.294Z,46.93
2017-09-24T03:43:33.110Z,46.13
2017-09-24T03:46:00.872Z,43.87
2017-09-24T03:48:28.688Z,41.43
2017-09-24T03:50:56.537Z,36.80
2017-09-24T03:53:24.281Z,37.37
2017-09-24T03:55:52.142Z,35.37
2017-09-24T03:58:19.895Z,30.60
2017-09-24T04:00:47.701Z,46.53
2017-09-24T04:03:15.447Z,47.40
2017-09-24T04:05:43.248Z,36.03
2017-09-24T04:08:11.115Z,40.87
2017-09-24T04:10:39.174Z,32.73
2017-09-24T04:13:06.942Z,46.03
2017-09-24T04:15:34.918Z,44.37
2017-09-24T04:18:02.880Z,35.30
2017-09-24T04:20:30.627Z,39.17
2017-09-24T04:22:58.456Z,42.10
2017-09-24T04:25:26.272Z,46.07
2017-09-24T04:27:54.204Z,51.47
2017-09-24T04:30:22.097Z,48.37
2017-09-24T04:32:50.011Z,45.60
2017-09-24T04:35:18.528Z,43.93
2017-09-24T04:37:46.274Z,44.13
2017-09-24T04:40:14.369Z,45.13
2017-09-24T04:42:42.243Z,51.40
2017-09-24T04:45:10.077Z,41.30
2017-09-24T04:47:38.315Z,38.30
2017-09-24T04:50:07.517Z,47.80
2017-09-24T04:52:36.578Z,51.73
2017-09-24T04:55:04.432Z,37.63
2017-09-24T04:57:32.218Z,41.67
2017-09-24T05:00:00.088Z,38.77
2017-09-24T05:02:28.250Z,32.30
2017-09-24T05:04:56.011Z,35.80
2017-09-24T05:07:23.977Z,42.30
2017-09-24T05:09:51.945Z,41.33
2017-09-24T05:12:19.842Z,35.37
2017-09-24T05:14:47.708Z,35.27
2017-09-24T05:17:15.447Z,36.87
2017-09-24T05:19:43.314Z,35.17
2017-09-24T05:22:11.172Z,38.40
2017-09-24T05:24:39.503Z,34.40
2017-09-24T05:27:08.131Z,34.17
2017-09-24T05:29:38.050Z,31.57
2017-09-24T05:32:05.814Z,40.63
2017-09-24T05:34:33.715Z,35.97
2017-09-24T05:37:01.481Z,45.40
2017-09-24T05:39:29.343Z,35.33
2017-09-24T05:41:57.144Z,27.87
2017-09-24T05:44:25.046Z,45.73
2017-09-24T05:46:52.908Z,33.63
2017-09-24T05:49:20.795Z,34.47
2017-09-24T05:51:48.836Z,33.03
2017-09-24T05:54:16.857Z,33.60
2017-09-24T05:56:44.910Z,31.10
2017-09-24T05:59:12.838Z,33.90
2017-09-24T06:01:40.848Z,34.03
2017-09-24T06:04:08.919Z,33.80
2017-09-24T06:06:37.851Z,21.80
2017-09-24T06:09:05.675Z,23.20
2017-09-24T06:11:33.449Z,27.67
2017-09-24T06:14:01.272Z,26.63
2017-09-24T06:16:29.356Z,19.10
2017-09-24T06:18:57.250Z,19.13
2017-09-24T06:21:25.204Z,14.80
2017-09-24T06:23:53.364Z,21.40
2017-09-24T06:26:21.439Z,31.13
2017-09-24T06:28:49.619Z,17.50
2017-09-24T06:31:17.652Z,26.43
2017-09-24T06:33:45.582Z,26.30
2017-09-24T06:36:13.521Z,30.73
2017-09-24T06:38:41.724Z,33.37
2017-09-24T06:41:09.664Z,30.00
2017-09-24T06:43:37.553Z,32.80
2017-09-24T06:46:05.615Z,34.97
2017-09-24T06:48:33.529Z,29.70
2017-09-24T06:51:01.642Z,25.03
2017-09-24T06:53:29.942Z,33.97
2017-09-24T06:55:57.811Z,32.20
2017-09-24T06:58:26.807Z,36.00
2017-09-24T07:00:54.877Z,30.13
2017-09-24T07:03:22.829Z,27.90
2017-09-24T07:05:50.882Z,33.40
2017-09-24T07:08:18.875Z,35.10
2017-09-24T07:10:46.753Z,33.83
2017-09-24T07:13:14.794Z,35.60
2017-09-24T07:18:17.176Z,32.87
2017-09-24T07:20:45.071Z,44.77
2017-09-24T07:23:13.426Z,39.93
2017-09-24T07:25:41.330Z,47.33
2017-09-24T07:28:10.080Z,43.30
2017-09-24T07:30:38.155Z,44.40
2017-09-24T07:33:06.121Z,49.90
2017-09-24T07:35:33.952Z,43.13
2017-09-24T07:38:01.889Z,38.93
2017-09-24T07:40:30.620Z,42.77
2017-09-24T07:42:59.011Z,52.13
2017-09-24T07:45:26.936Z,49.90
2017-09-24T07:47:55.578Z,50.53
2017-09-24T07:50:23.539Z,54.10
2017-09-24T07:52:52.051Z,59.53
2017-09-24T07:55:19.866Z,56.10
2017-09-24T07:57:47.791Z,50.30
2017-09-24T08:00:15.721Z,59.27
2017-09-24T08:02:43.684Z,61.40
2017-09-24T08:05:18.599Z,48.83
2017-09-24T08:07:48.305Z,61.43
2017-09-24T08:10:18.966Z,62.50
2017-09-24T08:12:53.887Z,69.23
2017-09-24T08:15:49.757Z,69.50
2017-09-24T08:18:17.828Z,64.23
2017-09-24T08:20:45.684Z,62.63
2017-09-24T08:23:13.581Z,72.90
2017-09-24T08:25:42.340Z,62.57
2017-09-24T08:28:10.740Z,73.97
2017-09-24T08:30:39.293Z,62.30
2017-09-24T08:33:07.164Z,60.13
2017-09-24T08:35:34.940Z,51.53
2017-09-24T08:38:03.582Z,49.57
2017-09-24T08:40:31.348Z,40.67
2017-09-24T08:42:59.955Z,39.43
2017-09-24T08:45:27.824Z,40.20
2017-09-24T08:47:55.769Z,45.00
2017-09-24T08:50:23.569Z,32.83
2017-09-24T08:52:51.326Z,30.47
2017-09-24T08:55:19.162Z,28.90
2017-09-24T08:57:47.051Z,18.27
2017-09-24T09:00:14.823Z,15.47
2017-09-24T09:02:43.899Z,16.97
2017-09-24T09:05:11.778Z,11.83
2017-09-24T09:07:40.286Z,10.60
2017-09-24T09:10:12.170Z,11.20
2017-09-24T09:12:39.951Z,11.40
2017-09-24T09:15:07.765Z,16.83
2017-09-24T09:17:38.447Z,13.73
2017-09-24T09:20:06.247Z,10.97
2017-09-24T09:22:34.014Z,10.67
2017-09-24T09:25:02.274Z,8.37
2017-09-24T09:27:30.368Z,11.23
2017-09-24T09:29:58.336Z,9.17
2017-09-24T09:32:26.396Z,10.10
2017-09-24T09:35:06.252Z,13.40
2017-09-24T09:37:34.115Z,14.37
2017-09-24T09:40:01.977Z,26.50
2017-09-24T09:42:29.857Z,12.30
2017-09-24T09:44:57.795Z,15.63
2017-09-24T09:47:26.664Z,11.20
2017-09-24T09:49:54.571Z,14.50
2017-09-24T09:52:22.351Z,10.00
2017-09-24T09:54:50.393Z,8.73
2017-09-24T09:57:18.249Z,7.00
2017-09-24T09:59:46.173Z,45.00
2017-09-24T10:02:14.105Z,10.17
2017-09-24T10:04:42.058Z,7.20
2017-09-24T10:07:21.909Z,8.63
2017-09-24T10:10:01.793Z,7.77
2017-09-24T10:12:31.461Z,8.73
2017-09-24T10:14:59.350Z,17.27
2017-09-24T10:17:27.213Z,9.30
2017-09-24T10:19:55.265Z,19.77
2017-09-24T10:22:23.109Z,20.93
2017-09-24T10:24:52.007Z,62.90
2017-09-24T10:27:19.792Z,9.33
2017-09-24T10:29:59.760Z,8.77
2017-09-24T10:32:27.941Z,10.03
2017-09-24T10:34:55.881Z,13.07
2017-09-24T10:37:23.749Z,9.60
2017-09-24T10:39:52.444Z,9.30
2017-09-24T10:42:20.424Z,11.23
2017-09-24T10:44:49.291Z,8.87
2017-09-24T10:47:17.074Z,9.50
2017-09-24T10:49:45.142Z,3.10
2017-09-24T10:52:12.924Z,2.93
2017-09-24T10:54:42.206Z,2.90
2017-09-24T10:57:10.097Z,11.23
2017-09-24T10:59:38.765Z,2.80
2017-09-24T11:02:06.652Z,3.37
2017-09-24T11:04:35.506Z,4.37
2017-09-24T11:07:03.468Z,5.00
2017-09-24T11:09:31.361Z,2.90
2017-09-24T11:11:59.234Z,4.43
2017-09-24T11:14:28.630Z,3.60
2017-09-24T11:16:56.496Z,4.60
2017-09-24T11:19:24.252Z,2.70
2017-09-24T11:21:52.068Z,3.10
2017-09-24T11:24:19.839Z,3.37
2017-09-24T11:26:47.657Z,4.57
2017-09-24T11:29:15.529Z,3.10
2017-09-24T11:31:53.609Z,3.27
2017-09-24T11:34:21.508Z,3.50
2017-09-24T11:36:50.072Z,4.70
2017-09-24T11:39:17.922Z,2.80
2017-09-24T11:41:45.914Z,2.90
2017-09-24T11:44:13.886Z,3.33
2017-09-24T11:46:42.262Z,4.07
2017-09-24T11:49:10.012Z,3.40
2017-09-24T11:51:37.891Z,2.47
2017-09-24T11:54:05.735Z,3.20
2017-09-24T11:56:33.809Z,3.37
2017-09-24T11:59:01.705Z,4.30
2017-09-24T12:01:30.297Z,3.67
2017-09-24T12:03:59.173Z,3.20
2017-09-24T12:06:27.319Z,3.47
2017-09-24T12:08:55.208Z,4.87
2017-09-24T12:11:23.157Z,6.10
2017-09-24T12:13:51.080Z,4.80
2017-09-24T12:16:19.730Z,5.50
2017-09-24T12:18:47.612Z,4.70
2017-09-24T12:21:16.196Z,7.23
2017-09-24T12:23:44.884Z,3.77
2017-09-24T12:26:13.462Z,7.80
2017-09-24T12:28:42.216Z,6.60
2017-09-24T12:31:10.110Z,11.13
2017-09-24T12:33:44.705Z,5.60
2017-09-24T12:36:12.601Z,5.30
2017-09-24T12:38:40.544Z,6.10
2017-09-24T12:41:08.537Z,5.77
2017-09-24T12:43:36.370Z,8.10
2017-09-24T12:46:04.243Z,9.30
2017-09-24T12:48:33.137Z,8.40
2017-09-24T12:51:01.138Z,8.57
2017-09-24T12:53:36.144Z,6.10
2017-09-24T12:56:04.174Z,4.50
2017-09-24T12:58:32.105Z,5.20
2017-09-24T13:00:59.963Z,6.50
2017-09-24T13:03:27.760Z,7.40
2017-09-24T13:05:56.416Z,6.13
2017-09-24T13:08:24.463Z,4.90
2017-09-24T13:10:52.285Z,5.27
2017-09-24T13:13:20.941Z,7.90
2017-09-24T13:15:49.600Z,5.73
2017-09-24T13:18:17.568Z,6.20
2017-09-24T13:20:45.349Z,6.43
2017-09-24T13:23:13.435Z,5.87
2017-09-24T13:25:42.001Z,5.40
2017-09-24T13:28:09.964Z,5.97
2017-09-24T13:30:37.926Z,9.83
2017-09-24T13:33:05.937Z,9.00
2017-09-24T13:35:34.588Z,6.90
2017-09-24T13:38:02.467Z,10.53
2017-09-24T13:40:30.339Z,10.30
2017-09-24T13:42:59.353Z,7.17
2017-09-24T13:45:28.003Z,9.37
2017-09-24T13:47:55.979Z,8.20
2017-09-24T13:50:23.932Z,8.67
2017-09-24T13:52:52.000Z,14.57
2017-09-24T13:55:19.996Z,9.70
2017-09-24T13:57:47.971Z,11.73
2017-09-24T14:00:15.841Z,19.10
2017-09-24T14:02:44.412Z,14.80
2017-09-24T14:05:12.218Z,13.13
2017-09-24T14:07:40.937Z,15.30
2017-09-24T14:10:08.796Z,15.43
2017-09-24T14:12:36.590Z,15.93
2017-09-24T14:15:04.537Z,15.50
2017-09-24T14:17:32.328Z,17.20
2017-09-24T14:20:00.280Z,15.87
2017-09-24T14:22:28.754Z,15.90
2017-09-24T14:24:56.926Z,19.10
2017-09-24T14:27:24.810Z,17.70
2017-09-24T14:29:52.761Z,15.93
2017-09-24T14:32:20.633Z,15.93
2017-09-24T14:34:48.518Z,14.37
2017-09-24T14:37:16.475Z,10.23
2017-09-24T14:39:45.076Z,11.83
2017-09-24T14:42:12.937Z,17.30
2017-09-24T14:44:41.606Z,14.10
2017-09-24T14:47:09.635Z,13.60
2017-09-24T14:49:37.744Z,13.97
2017-09-24T14:52:05.817Z,15.53
2017-09-24T14:54:33.690Z,17.00
2017-09-24T14:57:01.676Z,11.33
2017-09-24T14:59:29.622Z,20.97
2017-09-24T15:01:57.804Z,15.30
2017-09-24T15:04:26.427Z,12.03
2017-09-24T15:06:55.169Z,17.97
2017-09-24T15:09:23.045Z,17.67
2017-09-24T15:11:51.104Z,16.87
2017-09-24T15:14:19.891Z,14.57
2017-09-24T15:16:47.860Z,10.10
2017-09-24T15:19:16.063Z,12.20
2017-09-24T15:21:44.004Z,10.40
2017-09-24T15:24:11.841Z,9.33
2017-09-24T15:26:40.285Z,9.73
2017-09-24T15:29:09.039Z,10.87
2017-09-24T15:31:36.829Z,8.13
2017-09-24T15:34:04.769Z,7.87
2017-09-24T15:36:32.738Z,6.80
2017-09-24T15:39:00.724Z,8.40
2017-09-24T15:41:29.421Z,7.87
2017-09-24T15:43:57.944Z,7.77
2017-09-24T15:46:25.760Z,7.57
2017-09-24T15:48:53.835Z,6.07
2017-09-24T15:51:22.293Z,10.60
2017-09-24T15:53:50.159Z,12.43
2017-09-24T15:56:19.070Z,15.23
2017-09-24T15:58:47.019Z,19.00
2017-09-24T16:01:15.014Z,13.87
2017-09-24T16:03:42.805Z,14.33
2017-09-24T16:06:11.439Z,13.87
2017-09-24T16:08:39.404Z,14.67
2017-09-24T16:11:08.500Z,17.10
2017-09-24T16:13:36.400Z,17.27
2017-09-24T16:16:04.236Z,18.80
2017-09-24T16:18:32.201Z,29.60
2017-09-24T16:21:00.088Z,23.33
2017-09-24T16:23:27.920Z,23.33
2017-09-24T16:25:56.008Z,23.20
2017-09-24T16:28:23.909Z,18.60
2017-09-24T16:30:52.048Z,24.43
2017-09-24T16:33:20.222Z,16.33
2017-09-24T16:35:48.296Z,18.93
2017-09-24T16:38:16.077Z,20.57
2017-09-24T16:40:44.233Z,21.87
2017-09-24T16:43:12.208Z,19.23
2017-09-24T16:45:40.094Z,22.30
2017-09-24T16:48:09.100Z,19.43
2017-09-24T16:50:37.775Z,26.03
2017-09-24T16:53:05.633Z,19.53
2017-09-24T16:55:33.616Z,20.53
2017-09-24T16:58:01.764Z,21.20
2017-09-24T17:00:29.823Z,23.73
2017-09-24T17:02:57.900Z,21.37
2017-09-24T17:05:26.049Z,18.27
2017-09-24T17:07:54.047Z,32.40
2017-09-24T17:10:22.032Z,35.20
2017-09-24T17:12:49.944Z,39.30
2017-09-24T17:15:17.980Z,44.20
2017-09-24T17:17:46.654Z,50.23
2017-09-24T17:20:14.597Z,58.23
2017-09-24T17:22:42.718Z,41.83
2017-09-24T17:25:11.661Z,30.93
2017-09-24T17:27:39.435Z,17.43
2017-09-24T17:30:07.528Z,13.47
2017-09-24T17:32:35.325Z,13.57
2017-09-24T17:35:03.230Z,10.83
2017-09-24T17:37:31.304Z,11.40
2017-09-24T17:39:59.483Z,10.43
2017-09-24T17:42:27.484Z,10.40
2017-09-24T17:44:56.368Z,13.53
2017-09-24T17:47:24.333Z,14.53
2017-09-24T17:49:52.131Z,14.20
2017-09-24T17:52:20.677Z,14.60
2017-09-24T17:54:48.621Z,12.30
2017-09-24T17:57:16.633Z,17.80
2017-09-24T17:59:45.378Z,18.10
2017-09-24T18:02:13.348Z,22.90
2017-09-24T18:04:41.315Z,15.93
2017-09-24T18:07:09.317Z,14.17
2017-09-24T18:09:37.992Z,18.43
2017-09-24T18:12:05.965Z,18.57
2017-09-24T18:14:33.847Z,17.87
2017-09-24T18:17:02.495Z,16.43
2017-09-24T18:19:30.455Z,16.40
2017-09-24T18:21:58.465Z,16.57
2017-09-24T18:24:27.222Z,16.07
2017-09-24T18:26:55.195Z,13.23
2017-09-24T18:29:23.272Z,10.93
2017-09-24T18:31:51.434Z,13.23
2017-09-24T18:34:19.451Z,11.80
2017-09-24T18:36:47.367Z,12.27
2017-09-24T18:39:15.365Z,10.93
2017-09-24T18:41:44.122Z,10.50
2017-09-24T18:44:11.988Z,14.33
2017-09-24T18:46:39.961Z,11.77
2017-09-24T18:49:08.748Z,8.70
2017-09-24T18:51:37.243Z,12.33
2017-09-24T18:54:09.624Z,17.60
2017-09-24T18:56:37.570Z,14.30
2017-09-24T18:59:05.742Z,12.47
2017-09-24T19:01:33.821Z,17.70
2017-09-24T19:04:01.782Z,18.17
2017-09-24T19:06:30.170Z,23.50
2017-09-24T19:08:59.464Z,24.43
2017-09-24T19:11:27.783Z,29.33
2017-09-24T19:13:55.823Z,23.73
2017-09-24T19:16:23.780Z,25.47
2017-09-24T19:18:52.258Z,23.53
2017-09-24T19:21:20.992Z,26.00
2017-09-24T19:23:49.787Z,23.97
2017-09-24T19:26:18.408Z,20.40
2017-09-24T19:28:46.713Z,20.43
2017-09-24T19:31:15.685Z,17.83
2017-09-24T19:33:43.865Z,23.63
2017-09-24T19:36:12.157Z,23.77
2017-09-24T19:38:41.537Z,22.43
2017-09-24T19:41:10.633Z,23.20
2017-09-24T19:43:38.956Z,32.07
2017-09-24T19:46:07.186Z,31.30
2017-09-24T19:48:35.154Z,34.87
2017-09-24T19:51:03.225Z,33.30
2017-09-24T19:53:31.296Z,33.10
2017-09-24T19:55:59.396Z,35.67
2017-09-24T19:58:27.434Z,35.63
2017-09-24T20:00:55.326Z,30.50
2017-09-24T20:03:23.214Z,35.17
2017-09-24T20:05:51.930Z,32.07
2017-09-24T20:08:19.930Z,29.53
2017-09-24T20:10:48.856Z,32.40
2017-09-24T20:13:16.788Z,42.30
2017-09-24T20:15:44.860Z,36.30
2017-09-24T20:18:13.748Z,38.87
2017-09-24T20:20:41.636Z,37.10
2017-09-24T20:23:09.892Z,33.13
2017-09-24T20:25:37.777Z,45.97
2017-09-24T20:28:05.911Z,53.47
2017-09-24T20:30:34.007Z,51.40
2017-09-24T20:33:02.074Z,50.30
2017-09-24T20:35:29.954Z,45.30
2017-09-24T20:37:58.047Z,50.57
2017-09-24T20:40:26.601Z,48.50
2017-09-24T20:42:54.496Z,48.73
2017-09-24T20:45:22.360Z,50.57
2017-09-24T20:47:50.412Z,46.70
2017-09-24T20:50:18.681Z,52.37
2017-09-24T20:52:46.572Z,56.53
2017-09-24T20:55:14.747Z,54.23
2017-09-24T20:57:43.933Z,46.37
2017-09-24T21:00:11.899Z,45.97
2017-09-24T21:02:39.853Z,49.63
2017-09-24T21:05:07.817Z,46.37
2017-09-24T21:07:35.711Z,45.70
2017-09-24T21:10:03.550Z,51.17
2017-09-24T21:12:31.334Z,39.70
2017-09-24T21:14:59.659Z,47.13
2017-09-24T21:17:27.459Z,47.30
2017-09-24T21:19:55.243Z,43.10
2017-09-24T21:22:23.109Z,39.40
2017-09-24T21:24:51.087Z,43.13
2017-09-24T21:27:19.022Z,49.87
2017-09-24T21:29:46.809Z,55.43
2017-09-24T21:32:14.672Z,58.43
2017-09-24T21:34:42.584Z,49.90
2017-09-24T21:37:11.537Z,53.50
2017-09-24T21:39:39.413Z,46.50
2017-09-24T21:42:07.454Z,46.80
2017-09-24T21:44:35.420Z,42.70
2017-09-24T21:47:03.392Z,39.20
2017-09-24T21:49:31.280Z,38.90
2017-09-24T21:51:59.226Z,35.70
2017-09-24T21:54:27.042Z,45.23
2017-09-24T21:56:55.779Z,53.97
2017-09-24T21:59:23.560Z,52.00
2017-09-24T22:01:51.410Z,47.30
2017-09-24T22:04:19.299Z,52.37
2017-09-24T22:06:47.144Z,50.10
2017-09-24T22:09:14.979Z,42.27
2017-09-24T22:11:42.796Z,45.03
2017-09-24T22:14:11.001Z,48.87
2017-09-24T22:16:39.738Z,51.73
2017-09-24T22:19:07.621Z,52.37
2017-09-24T22:21:35.385Z,37.90
2017-09-24T22:24:03.337Z,33.67
2017-09-24T22:26:31.110Z,26.60
2017-09-24T22:28:58.860Z,25.20
2017-09-24T22:31:26.648Z,25.30
2017-09-24T22:33:54.521Z,26.13
2017-09-24T22:36:23.102Z,32.43
2017-09-24T22:38:52.682Z,24.03
2017-09-24T22:41:20.415Z,24.37
2017-09-24T22:43:48.227Z,27.70
2017-09-24T22:46:16.099Z,23.70
2017-09-24T22:48:43.961Z,21.30
2017-09-24T22:51:11.862Z,20.63
2017-09-24T22:53:40.415Z,28.13
2017-09-24T22:56:08.296Z,33.03
2017-09-24T22:58:36.901Z,27.23
2017-09-24T23:01:05.567Z,31.13
2017-09-24T23:03:33.498Z,32.43
2017-09-24T23:06:02.422Z,31.53
2017-09-24T23:08:30.279Z,32.53
2017-09-24T23:10:58.029Z,37.50
2017-09-24T23:13:25.798Z,30.70
2017-09-24T23:15:54.415Z,34.73
2017-09-24T23:18:22.936Z,39.77
2017-09-24T23:20:50.680Z,37.33
2017-09-24T23:23:18.504Z,35.50
2017-09-24T23:25:46.354Z,29.37
2017-09-24T23:28:14.523Z,30.87
2017-09-24T23:30:42.404Z,35.77
2017-09-24T23:33:10.407Z,32.67
2017-09-24T23:35:38.916Z,27.20
2017-09-24T23:40:32.638Z,27.37
2017-09-24T23:43:00.431Z,30.37
2017-09-24T23:45:28.957Z,22.03
2017-09-24T23:47:56.862Z,21.23
2017-09-24T23:50:24.721Z,29.43
2017-09-24T23:52:52.788Z,30.20
2017-09-24T23:55:20.746Z,28.13
2017-09-24T23:57:48.837Z,29.80
